Atlas — SV6729 — position and weather

sailwx.info

Track history (hours):
 
Tides and Currents Weather Stations Pressure Air Temp Water Temp Dewpoint Dewpoint Depression Visibility Wind Speed Wind Dir Waves Ship Positions

Atlas

Last reported at 2014-Aug-27 13:33 UTC. Time now 2014-Aug-28 03:21 UTC.
Position N 37°57' E 023°37'.

Length 29 m; draft 5 m.

Type: Tug. MMSI: 239611000.

Date/timePositionNaut miles runAvg speedWind from/ knotsBaromVisibWave heightAir tempDewpointWater temp
2014-Aug-27 13:33N 37°57' E 023°37'0 0.0
2014-Aug-27 12:31N 37°57' E 023°37'0 0.0
2014-Aug-27 11:31N 37°57' E 023°37'1 0.6
2014-Aug-27 10:33N 37°57' E 023°36'1 0.6
2014-Aug-27 09:33N 37°57' E 023°37'3 2.5
2014-Aug-27 08:30N 37°57' E 023°33'2 2.3
2014-Aug-27 07:33N 37°57' E 023°36'0 0.4
2014-Aug-27 06:33N 37°57' E 023°37'0 0.0
2014-Aug-27 05:34N 37°57' E 023°37'0 0.3
2014-Aug-27 04:34N 37°57' E 023°36'0 0.0
2014-Aug-26 19:33N 37°57' E 023°36'1 0.7
2014-Aug-26 18:33N 37°57' E 023°37'0 0.0
2014-Aug-26 17:34N 37°57' E 023°37'0 0.0
2014-Aug-26 16:33N 37°57' E 023°37'0 0.0
2014-Aug-26 15:34N 37°57' E 023°37'0 0.0
2014-Aug-26 14:33N 37°57' E 023°37'4 3.8
2014-Aug-26 13:31N 37°60' E 023°33'2 2.1
2014-Aug-26 12:34N 38°02' E 023°33'2 1.8
2014-Aug-26 11:29N 38°01' E 023°35'1 1.1
2014-Aug-26 10:30N 38°01' E 023°33'2 1.7
2014-Aug-26 09:33N 38°02' E 023°32'0 0.0
2014-Aug-26 08:33N 38°02' E 023°32'1 0.5
2014-Aug-26 07:29N 38°02' E 023°32'1 0.9
2014-Aug-26 06:33N 38°02' E 023°32'1 0.3
2014-Aug-26 04:15N 38°01' E 023°32'5 6.5
2014-Aug-26 03:31N 37°57' E 023°36'  
Track history (hours):
 
Tides and Currents Weather Stations Pressure Air Temp Water Temp Dewpoint Dewpoint Depression Visibility Wind Speed Wind Dir Waves Ship Positions

Atlas

Last reported at 2014-Aug-27 13:33 UTC. Time now 2014-Aug-28 03:21 UTC.
Position N 37°57' E 023°37'.

Length 29 m; draft 5 m.

Type: Tug. MMSI: 239611000.

Date/timePositionNaut miles runAvg speedWind from/ knotsBaromVisibWave heightAir tempDewpointWater temp
2014-Aug-27 13:33N 37°57' E 023°37'0 0.0
2014-Aug-27 12:31N 37°57' E 023°37'0 0.0
2014-Aug-27 11:31N 37°57' E 023°37'1 0.6
2014-Aug-27 10:33N 37°57' E 023°36'1 0.6
2014-Aug-27 09:33N 37°57' E 023°37'3 2.5
2014-Aug-27 08:30N 37°57' E 023°33'2 2.3
2014-Aug-27 07:33N 37°57' E 023°36'0 0.4
2014-Aug-27 06:33N 37°57' E 023°37'0 0.0
2014-Aug-27 05:34N 37°57' E 023°37'0 0.3
2014-Aug-27 04:34N 37°57' E 023°36'0 0.0
2014-Aug-26 19:33N 37°57' E 023°36'1 0.7
2014-Aug-26 18:33N 37°57' E 023°37'0 0.0
2014-Aug-26 17:34N 37°57' E 023°37'0 0.0
2014-Aug-26 16:33N 37°57' E 023°37'0 0.0
2014-Aug-26 15:34N 37°57' E 023°37'0 0.0
2014-Aug-26 14:33N 37°57' E 023°37'4 3.8
2014-Aug-26 13:31N 37°60' E 023°33'2 2.1
2014-Aug-26 12:34N 38°02' E 023°33'2 1.8
2014-Aug-26 11:29N 38°01' E 023°35'1 1.1
2014-Aug-26 10:30N 38°01' E 023°33'2 1.7
2014-Aug-26 09:33N 38°02' E 023°32'0 0.0
2014-Aug-26 08:33N 38°02' E 023°32'1 0.5
2014-Aug-26 07:29N 38°02' E 023°32'1 0.9
2014-Aug-26 06:33N 38°02' E 023°32'1 0.3
2014-Aug-26 04:15N 38°01' E 023°32'5 6.5
2014-Aug-26 03:31N 37°57' E 023°36'  

Dump ship's entire track history